Time;durP1;ratioP1;P1;durP2;ratioP2;P2;SDS_P1;SDS_P2;PMS_P1;PMS_P2;Temp;Humidity;BMP_temperature;BMP_pressure;BME280_temperature;BME280_humidity;BME280_pressure;Samples;Min_cycle;Max_cycle;Signal;HPM_P1;HPM_P2
2023/06/27 00:01:20;;;;;;;83.72;53.28;;;19.30;72.50;;;;;;4989387;28;90195;-79
2023/06/27 00:03:51;;;;;;;86.55;53.33;;;19.20;72.50;;;;;;4985452;28;89839;-80
2023/06/27 00:06:20;;;;;;;84.67;53.50;;;19.20;72.70;;;;;;4979216;28;90485;-81
2023/06/27 00:08:49;;;;;;;86.45;53.05;;;19.20;72.90;;;;;;4984022;28;89941;-79
2023/06/27 00:11:15;;;;;;;82.95;53.33;;;19.20;73.00;;;;;;4965221;28;93824;-80
2023/06/27 00:13:41;;;;;;;83.13;53.20;;;19.20;73.00;;;;;;4966470;28;89301;-79
2023/06/27 00:16:13;;;;;;;83.55;53.40;;;19.20;73.10;;;;;;4982697;28;90006;-82
2023/06/27 00:18:47;;;;;;;82.78;53.33;;;19.20;73.00;;;;;;4986791;28;91011;-79
2023/06/27 00:21:15;;;;;;;83.90;53.53;;;19.20;73.20;;;;;;4983056;28;91066;-79
2023/06/27 00:23:43;;;;;;;85.18;53.35;;;19.10;73.30;;;;;;4981108;28;89628;-79
2023/06/27 00:26:09;;;;;;;83.40;53.13;;;19.10;73.10;;;;;;4975800;28;90646;-79
2023/06/27 00:28:35;;;;;;;84.07;53.53;;;19.10;73.40;;;;;;4985903;28;89989;-79
2023/06/27 00:31:01;;;;;;;83.25;53.53;;;19.10;73.50;;;;;;4977428;28;89616;-81
2023/06/27 00:33:27;;;;;;;83.60;53.15;;;19.10;73.70;;;;;;4968661;28;89887;-79
2023/06/27 00:35:52;;;;;;;82.80;53.15;;;19.10;73.60;;;;;;4965603;28;93350;-79
2023/06/27 00:38:18;;;;;;;82.40;53.10;;;19.10;73.70;;;;;;4965292;28;92763;-79
2023/06/27 00:40:44;;;;;;;83.43;53.45;;;19.10;74.00;;;;;;4960499;28;89552;-79
2023/06/27 00:43:09;;;;;;;83.15;53.35;;;19.00;73.80;;;;;;4982600;28;89563;-81
2023/06/27 00:45:35;;;;;;;83.30;53.42;;;19.00;73.90;;;;;;4972639;28;95365;-79
2023/06/27 00:48:02;;;;;;;83.53;52.85;;;19.00;73.70;;;;;;4992227;28;91796;-81
2023/06/27 00:50:30;;;;;;;84.38;53.25;;;19.00;73.90;;;;;;4972842;28;90200;-80
2023/06/27 00:52:58;;;;;;;85.10;53.70;;;19.00;73.90;;;;;;4985617;28;89637;-79
2023/06/27 00:55:24;;;;;;;85.05;53.38;;;18.90;74.00;;;;;;4970149;28;93485;-79
2023/06/27 00:57:50;;;;;;;86.00;53.45;;;18.90;74.00;;;;;;4982999;28;89433;-79
2023/06/27 01:00:16;;;;;;;83.85;53.05;;;18.90;74.20;;;;;;4971363;28;89908;-79
2023/06/27 01:02:43;;;;;;;82.50;52.90;;;18.90;74.20;;;;;;4972418;28;88694;-80
2023/06/27 01:05:09;;;;;;;84.85;53.25;;;18.90;74.60;;;;;;4987070;28;89877;-79
2023/06/27 01:07:40;;;;;;;83.28;53.20;;;18.80;74.40;;;;;;4976239;28;90612;-80
2023/06/27 01:10:27;;;;;;;83.53;53.45;;;18.90;74.70;;;;;;4982938;28;90753;-83
2023/06/27 01:12:59;;;;;;;84.03;53.17;;;18.90;74.50;;;;;;4962290;28;89760;-80
2023/06/27 01:15:26;;;;;;;83.78;53.10;;;18.80;74.60;;;;;;4963074;28;93578;-80
2023/06/27 01:17:52;;;;;;;82.88;53.30;;;18.80;74.80;;;;;;4980110;28;90503;-80
2023/06/27 01:20:19;;;;;;;81.80;52.75;;;18.80;74.60;;;;;;4985368;28;89399;-81
2023/06/27 01:22:55;;;;;;;85.65;53.67;;;18.80;75.10;;;;;;4986901;28;90309;-83
2023/06/27 01:25:21;;;;;;;81.70;52.88;;;18.80;74.80;;;;;;4965449;28;93733;-80
2023/06/27 01:27:47;;;;;;;84.07;53.65;;;18.80;74.80;;;;;;4982348;28;89612;-81
2023/06/27 01:30:15;;;;;;;84.22;53.53;;;18.80;75.20;;;;;;4983274;28;93944;-80
2023/06/27 01:32:49;;;;;;;83.45;53.40;;;18.80;75.10;;;;;;4986569;28;89527;-82
2023/06/27 01:35:34;;;;;;;82.60;52.85;;;18.80;75.20;;;;;;4989833;28;91109;-80
2023/06/27 01:38:07;;;;;;;81.55;52.95;;;18.80;75.40;;;;;;4980514;28;92260;-80
2023/06/27 01:40:36;;;;;;;84.25;52.92;;;18.70;75.20;;;;;;4964041;28;89561;-80
2023/06/27 01:43:07;;;;;;;83.00;52.95;;;18.70;74.90;;;;;;4967270;28;94343;-80
2023/06/27 01:45:34;;;;;;;83.80;53.65;;;18.70;75.20;;;;;;4983983;28;92828;-80
2023/06/27 01:48:01;;;;;;;83.15;53.38;;;18.70;75.40;;;;;;4984413;28;90214;-80
2023/06/27 01:50:27;;;;;;;82.85;53.30;;;18.70;75.30;;;;;;4960791;28;91402;-80
2023/06/27 01:52:52;;;;;;;84.55;53.38;;;18.70;75.50;;;;;;4965662;28;89083;-80
2023/06/27 01:55:18;;;;;;;81.93;52.92;;;18.70;75.20;;;;;;4980600;28;90262;-80
2023/06/27 01:57:44;;;;;;;84.00;53.25;;;18.70;75.50;;;;;;4985767;28;90495;-80
2023/06/27 02:00:10;;;;;;;82.93;52.97;;;18.70;75.80;;;;;;4968087;28;90212;-80
2023/06/27 02:02:36;;;;;;;82.47;53.15;;;18.70;75.60;;;;;;4963053;28;90729;-80
2023/06/27 02:05:02;;;;;;;82.85;52.95;;;18.70;76.10;;;;;;4973878;28;92903;-80
2023/06/27 02:07:28;;;;;;;82.50;53.15;;;18.60;75.60;;;;;;4982024;28;89768;-80
2023/06/27 02:09:53;;;;;;;83.00;53.22;;;18.60;76.20;;;;;;4972913;28;89763;-80
2023/06/27 02:12:19;;;;;;;84.10;53.15;;;18.60;76.00;;;;;;4964260;28;90349;-80
2023/06/27 02:14:45;;;;;;;85.07;53.50;;;18.60;75.90;;;;;;4984951;28;90926;-80
2023/06/27 02:17:10;;;;;;;84.45;52.97;;;18.60;75.60;;;;;;4979326;28;89509;-80
2023/06/27 02:19:36;;;;;;;84.32;53.28;;;18.60;75.80;;;;;;4982105;28;89396;-80
2023/06/27 02:22:02;;;;;;;81.07;52.78;;;18.60;75.70;;;;;;4963738;28;88893;-80
2023/06/27 02:24:28;;;;;;;84.65;53.30;;;18.60;75.60;;;;;;4966509;28;94111;-80
2023/06/27 02:26:53;;;;;;;83.65;53.45;;;18.60;75.70;;;;;;4974821;28;93612;-80
2023/06/27 02:29:19;;;;;;;84.30;53.33;;;18.60;76.50;;;;;;4971275;28;89831;-80
2023/06/27 02:31:45;;;;;;;83.53;52.92;;;18.60;75.60;;;;;;4967541;28;89402;-82
2023/06/27 02:34:10;;;;;;;83.35;52.80;;;18.50;75.30;;;;;;4978066;28;93709;-80
2023/06/27 02:36:36;;;;;;;82.65;53.10;;;18.50;75.40;;;;;;4970650;28;91954;-80
2023/06/27 02:39:02;;;;;;;85.07;53.08;;;18.50;76.20;;;;;;4986953;28;93951;-80
2023/06/27 02:41:27;;;;;;;81.32;52.83;;;18.50;76.20;;;;;;4983099;28;89637;-80
2023/06/27 02:43:53;;;;;;;83.10;52.88;;;18.50;76.90;;;;;;4968477;28;94458;-80
2023/06/27 02:46:19;;;;;;;81.10;53.13;;;18.50;75.90;;;;;;4963512;28;92936;-80
2023/06/27 02:48:45;;;;;;;82.30;52.95;;;18.50;75.90;;;;;;4964847;28;91107;-80
2023/06/27 02:51:10;;;;;;;84.68;52.97;;;18.50;76.30;;;;;;4983743;28;89626;-80
2023/06/27 02:53:36;;;;;;;82.32;52.70;;;18.50;76.30;;;;;;4986386;28;89519;-80
2023/06/27 02:56:03;;;;;;;84.65;53.05;;;18.50;77.10;;;;;;4973330;28;92138;-80
2023/06/27 02:58:32;;;;;;;83.07;52.83;;;18.50;76.50;;;;;;4985944;28;90074;-80
2023/06/27 03:01:06;;;;;;;82.90;53.42;;;18.50;76.00;;;;;;4984600;28;89362;-81
2023/06/27 03:03:32;;;;;;;84.78;53.55;;;18.50;76.80;;;;;;4984325;28;90269;-80
2023/06/27 03:06:02;;;;;;;83.70;53.10;;;18.40;76.70;;;;;;4960862;28;93012;-80
2023/06/27 03:08:29;;;;;;;82.93;53.13;;;18.40;77.30;;;;;;4966958;28;89551;-81
2023/06/27 03:10:56;;;;;;;84.13;52.75;;;18.40;76.10;;;;;;4968073;28;93721;-80
2023/06/27 03:13:21;;;;;;;83.32;52.65;;;18.40;76.30;;;;;;4985368;28;91230;-80
2023/06/27 03:15:47;;;;;;;82.38;53.03;;;18.40;76.80;;;;;;4990577;28;90579;-80
2023/06/27 03:18:13;;;;;;;83.18;53.17;;;18.40;76.80;;;;;;4985152;28;89812;-81
2023/06/27 03:20:38;;;;;;;81.30;52.95;;;18.40;76.90;;;;;;4967801;28;91084;-80
2023/06/27 03:23:04;;;;;;;83.28;53.33;;;18.40;77.00;;;;;;4989743;28;90661;-83
2023/06/27 03:25:29;;;;;;;82.80;53.15;;;18.40;76.80;;;;;;4988682;28;89816;-80
2023/06/27 03:27:55;;;;;;;83.50;52.95;;;18.30;76.50;;;;;;4980097;28;89246;-80
2023/06/27 03:30:20;;;;;;;82.78;52.85;;;18.40;77.30;;;;;;4959087;28;88918;-82
2023/06/27 03:32:46;;;;;;;83.18;53.10;;;18.30;76.80;;;;;;4989181;28;90069;-83
2023/06/27 03:35:11;;;;;;;82.50;52.88;;;18.30;77.10;;;;;;4984454;28;91462;-79
2023/06/27 03:37:37;;;;;;;83.32;53.00;;;18.30;77.20;;;;;;4984410;28;92098;-80
2023/06/27 03:40:04;;;;;;;83.15;53.28;;;18.30;77.20;;;;;;4985185;28;89499;-80
2023/06/27 03:42:30;;;;;;;84.13;53.38;;;18.30;77.00;;;;;;4960505;28;93207;-79
2023/06/27 03:44:56;;;;;;;83.50;52.95;;;18.30;76.70;;;;;;4979380;28;90553;-80
2023/06/27 03:47:23;;;;;;;82.40;52.47;;;18.30;76.90;;;;;;4980482;28;90476;-81
2023/06/27 03:49:48;;;;;;;84.18;52.92;;;18.30;76.90;;;;;;4970502;28;89610;-80
2023/06/27 03:52:14;;;;;;;83.40;53.17;;;18.30;77.40;;;;;;4973159;28;92659;-79
2023/06/27 03:54:40;;;;;;;81.72;52.80;;;18.30;77.10;;;;;;4967245;28;92453;-83
2023/06/27 03:57:05;;;;;;;82.38;53.25;;;18.30;77.60;;;;;;4967157;28;89834;-80
2023/06/27 03:59:32;;;;;;;84.05;52.95;;;18.30;77.20;;;;;;4968359;28;89304;-81
2023/06/27 04:01:58;;;;;;;83.25;52.85;;;18.30;77.10;;;;;;4978591;28;91554;-80
2023/06/27 04:04:24;;;;;;;83.07;53.30;;;18.30;77.20;;;;;;4976269;28;90413;-81
2023/06/27 04:06:49;;;;;;;83.32;53.08;;;18.30;77.20;;;;;;4963503;28;89389;-80
2023/06/27 04:09:15;;;;;;;83.13;53.08;;;18.30;76.80;;;;;;4963482;28;89527;-80
2023/06/27 04:11:40;;;;;;;83.05;53.38;;;18.30;76.80;;;;;;4950676;28;93759;-80
2023/06/27 04:14:06;;;;;;;84.47;52.85;;;18.30;77.20;;;;;;4971136;28;93029;-81
2023/06/27 04:16:32;;;;;;;81.55;52.80;;;18.30;77.40;;;;;;4984249;28;89541;-80
2023/06/27 04:18:57;;;;;;;82.68;53.10;;;18.40;77.80;;;;;;4994595;28;89793;-80
2023/06/27 04:21:23;;;;;;;83.95;53.17;;;18.40;77.50;;;;;;4996459;28;93337;-80
2023/06/27 04:23:54;;;;;;;84.00;53.35;;;18.40;76.80;;;;;;4980892;28;89816;-80
2023/06/27 04:26:20;;;;;;;83.53;53.42;;;18.40;76.40;;;;;;4985555;28;90734;-80
2023/06/27 04:28:48;;;;;;;82.55;53.20;;;18.40;76.60;;;;;;4991314;28;90030;-81
2023/06/27 04:31:14;;;;;;;86.97;54.28;;;18.40;76.50;;;;;;4972554;28;94519;-82
2023/06/27 04:33:40;;;;;;;84.47;53.47;;;18.50;76.70;;;;;;4995318;28;90191;-80
2023/06/27 04:36:06;;;;;;;87.60;54.10;;;18.50;77.10;;;;;;4968570;28;90990;-81
2023/06/27 04:38:39;;;;;;;91.53;53.75;;;18.50;76.50;;;;;;4966136;28;89485;-81
2023/06/27 04:41:06;;;;;;;85.70;53.85;;;18.50;76.10;;;;;;4980220;28;91029;-80
2023/06/27 04:43:32;;;;;;;86.60;54.03;;;18.50;76.30;;;;;;4991266;28;89302;-81
2023/06/27 04:46:01;;;;;;;87.30;54.30;;;18.50;76.30;;;;;;4980198;28;89631;-80
2023/06/27 04:48:28;;;;;;;90.22;54.55;;;18.50;75.90;;;;;;4971567;28;90017;-80
2023/06/27 04:50:54;;;;;;;89.07;55.08;;;18.60;75.90;;;;;;4975556;28;93751;-80
2023/06/27 04:53:20;;;;;;;91.10;54.65;;;18.60;75.50;;;;;;4970083;28;94487;-81
2023/06/27 04:55:50;;;;;;;89.28;54.22;;;18.70;75.80;;;;;;4989903;28;90007;-80
2023/06/27 04:58:16;;;;;;;94.13;55.40;;;18.70;75.40;;;;;;4971231;28;90987;-80
2023/06/27 05:00:44;;;;;;;93.57;54.72;;;18.70;75.40;;;;;;4994568;28;90498;-82
2023/06/27 05:03:13;;;;;;;91.50;54.85;;;18.70;74.90;;;;;;4980937;28;89979;-80
2023/06/27 05:05:39;;;;;;;90.10;54.95;;;18.70;75.00;;;;;;4976797;28;94123;-80
2023/06/27 05:08:05;;;;;;;86.97;54.53;;;18.70;75.30;;;;;;4991729;28;89769;-80
2023/06/27 05:10:31;;;;;;;89.30;54.50;;;18.80;74.80;;;;;;4963911;28;92854;-81
2023/06/27 05:12:58;;;;;;;92.43;54.78;;;18.80;74.80;;;;;;4988367;28;89810;-82
2023/06/27 05:15:24;;;;;;;87.32;54.67;;;18.80;74.30;;;;;;4984118;28;91212;-82
2023/06/27 05:18:14;;;;;;;87.75;54.63;;;18.80;74.30;;;;;;4973225;28;89789;-82
2023/06/27 05:20:40;;;;;;;87.95;54.38;;;18.90;74.30;;;;;;4965285;28;92972;-81
2023/06/27 05:23:05;;;;;;;86.38;53.75;;;18.90;74.40;;;;;;4981066;28;92750;-81
2023/06/27 05:25:31;;;;;;;89.40;54.60;;;18.90;74.30;;;;;;4989221;28;89538;-80
2023/06/27 05:27:57;;;;;;;90.80;55.55;;;19.00;74.40;;;;;;4983134;28;90340;-79
2023/06/27 05:30:23;;;;;;;86.80;53.83;;;19.00;75.80;;;;;;4983180;28;89906;-79
2023/06/27 05:32:48;;;;;;;89.70;55.00;;;19.10;73.50;;;;;;4983321;28;90115;-80
2023/06/27 05:35:14;;;;;;;91.30;54.95;;;19.00;72.90;;;;;;4980948;28;89615;-81
2023/06/27 05:37:40;;;;;;;90.97;55.20;;;19.10;74.40;;;;;;4983704;28;89943;-81
2023/06/27 05:40:06;;;;;;;94.20;55.72;;;19.10;73.70;;;;;;4985999;28;90841;-82
2023/06/27 05:42:31;;;;;;;93.63;55.63;;;19.10;72.70;;;;;;4967386;28;95150;-80
2023/06/27 05:44:57;;;;;;;92.10;56.13;;;19.20;73.10;;;;;;4987481;28;89589;-79
2023/06/27 05:47:23;;;;;;;91.95;55.35;;;19.30;71.90;;;;;;4991520;28;90034;-80
2023/06/27 05:49:48;;;;;;;92.40;55.15;;;19.30;72.50;;;;;;4989301;28;89779;-80
2023/06/27 05:52:14;;;;;;;91.32;55.20;;;19.30;72.50;;;;;;4987325;28;92213;-81
2023/06/27 05:54:43;;;;;;;89.13;55.38;;;19.40;72.30;;;;;;4971207;28;89430;-80
2023/06/27 05:57:09;;;;;;;90.10;55.08;;;19.50;72.70;;;;;;4968552;28;89230;-80
2023/06/27 05:59:35;;;;;;;91.68;55.17;;;19.50;72.70;;;;;;4991991;28;90103;-82
2023/06/27 06:02:01;;;;;;;87.10;54.85;;;19.50;71.80;;;;;;4971013;28;92679;-81
2023/06/27 06:04:26;;;;;;;91.85;54.78;;;19.60;71.80;;;;;;4977421;28;90657;-80
2023/06/27 06:06:52;;;;;;;92.05;54.67;;;19.60;71.40;;;;;;4987928;28;91751;-81
2023/06/27 06:09:17;;;;;;;91.45;54.65;;;19.70;71.80;;;;;;4990120;28;90829;-80
2023/06/27 06:11:44;;;;;;;88.38;54.55;;;19.70;71.50;;;;;;4966655;28;92747;-80
2023/06/27 06:14:10;;;;;;;89.47;54.63;;;19.80;70.70;;;;;;4974875;28;89822;-82
2023/06/27 06:16:35;;;;;;;89.82;55.17;;;19.80;71.30;;;;;;4984018;28;89892;-80
2023/06/27 06:19:02;;;;;;;87.97;54.28;;;19.80;71.40;;;;;;4986913;28;91661;-81
2023/06/27 06:21:28;;;;;;;89.32;54.80;;;19.90;70.30;;;;;;4987382;28;90117;-80
2023/06/27 06:23:53;;;;;;;89.55;54.17;;;19.90;70.60;;;;;;4967480;28;89814;-80
2023/06/27 06:26:19;;;;;;;89.10;54.65;;;20.00;70.40;;;;;;4990519;28;89506;-81
2023/06/27 06:28:45;;;;;;;90.18;54.78;;;20.00;71.40;;;;;;4972191;28;94156;-80
2023/06/27 06:31:11;;;;;;;88.18;54.70;;;20.00;70.40;;;;;;4971748;28;94783;-80
2023/06/27 06:33:38;;;;;;;87.32;54.30;;;20.10;70.00;;;;;;4997973;28;90074;-80
2023/06/27 06:36:05;;;;;;;90.18;54.85;;;20.10;70.00;;;;;;4986365;28;89833;-80
2023/06/27 06:38:31;;;;;;;86.95;54.60;;;20.10;70.00;;;;;;4985664;28;92323;-81
2023/06/27 06:40:56;;;;;;;85.32;53.95;;;20.10;69.90;;;;;;4971038;28;93220;-80
2023/06/27 06:43:25;;;;;;;88.05;54.08;;;20.20;69.30;;;;;;4972005;28;89750;-80
2023/06/27 06:45:52;;;;;;;88.20;54.58;;;20.20;69.20;;;;;;4983512;28;90587;-80
2023/06/27 06:48:19;;;;;;;88.53;54.55;;;20.30;69.30;;;;;;4987705;28;92052;-81
2023/06/27 06:50:45;;;;;;;86.63;54.30;;;20.30;69.20;;;;;;4967159;28;93885;-80
2023/06/27 06:53:10;;;;;;;88.43;54.90;;;20.30;69.10;;;;;;4991516;28;90789;-81
2023/06/27 06:55:36;;;;;;;88.03;54.70;;;20.40;69.70;;;;;;4994800;28;91537;-80
2023/06/27 06:58:02;;;;;;;87.00;54.05;;;20.40;69.20;;;;;;4989136;28;91213;-80
2023/06/27 07:00:27;;;;;;;89.50;54.55;;;20.40;68.80;;;;;;4993190;28;90065;-80
2023/06/27 07:02:54;;;;;;;86.07;54.38;;;20.50;68.90;;;;;;4989025;28;89671;-80
2023/06/27 07:05:19;;;;;;;87.13;54.33;;;20.50;69.20;;;;;;4991855;28;89905;-82
2023/06/27 07:07:45;;;;;;;88.45;54.63;;;20.60;68.60;;;;;;4983480;28;90569;-80
2023/06/27 07:10:10;;;;;;;86.07;54.53;;;20.60;69.30;;;;;;4970448;28;94076;-80
2023/06/27 07:12:36;;;;;;;87.25;54.55;;;20.60;68.70;;;;;;4984148;28;90037;-80
2023/06/27 07:15:02;;;;;;;85.55;54.22;;;20.70;68.40;;;;;;4964874;28;90063;-80
2023/06/27 07:17:27;;;;;;;87.75;54.65;;;20.70;68.50;;;;;;4984561;28;91644;-80
2023/06/27 07:19:54;;;;;;;86.95;54.40;;;20.70;68.70;;;;;;4965473;28;93211;-80
2023/06/27 07:22:19;;;;;;;87.53;54.47;;;20.80;68.20;;;;;;4986771;28;89340;-83
2023/06/27 07:24:45;;;;;;;88.43;54.75;;;20.80;68.70;;;;;;4983909;28;89456;-80
2023/06/27 07:27:10;;;;;;;87.75;54.70;;;20.90;68.00;;;;;;4983538;28;90121;-80
2023/06/27 07:29:36;;;;;;;86.78;54.35;;;20.90;68.50;;;;;;4972525;28;92416;-80
2023/06/27 07:32:02;;;;;;;85.32;54.10;;;20.90;68.00;;;;;;4993734;28;89469;-80
2023/06/27 07:34:28;;;;;;;87.50;54.67;;;20.90;67.80;;;;;;4995480;28;89716;-81
2023/06/27 07:36:53;;;;;;;88.90;54.95;;;21.00;68.40;;;;;;4991080;28;90796;-80
2023/06/27 07:39:19;;;;;;;87.60;54.72;;;21.00;67.90;;;;;;4980901;28;90062;-80
2023/06/27 07:41:44;;;;;;;88.47;54.75;;;21.10;68.20;;;;;;4993433;28;91015;-81
2023/06/27 07:44:10;;;;;;;87.68;54.83;;;21.10;67.90;;;;;;4982691;28;89495;-82
2023/06/27 07:46:36;;;;;;;88.38;54.45;;;21.20;67.90;;;;;;4967164;28;92753;-80
2023/06/27 07:49:02;;;;;;;85.43;54.45;;;21.20;67.80;;;;;;4981173;28;89587;-80
2023/06/27 07:51:30;;;;;;;86.90;54.65;;;21.20;67.20;;;;;;4972984;28;89732;-80
2023/06/27 07:53:56;;;;;;;88.47;55.17;;;21.20;67.10;;;;;;4991931;28;89521;-81
2023/06/27 07:56:22;;;;;;;86.65;54.75;;;21.20;67.40;;;;;;4989158;28;89803;-83
2023/06/27 07:58:48;;;;;;;87.00;54.63;;;21.20;67.20;;;;;;4969544;28;94884;-80
2023/06/27 08:01:13;;;;;;;87.82;54.58;;;21.30;67.10;;;;;;4975805;28;90503;-81
2023/06/27 08:03:39;;;;;;;87.15;54.17;;;21.30;67.40;;;;;;4971309;28;89669;-81
2023/06/27 08:06:05;;;;;;;88.38;54.63;;;21.30;66.80;;;;;;4993618;28;90809;-82
2023/06/27 08:08:30;;;;;;;88.60;54.80;;;21.30;67.10;;;;;;4990897;28;90921;-81
2023/06/27 08:10:56;;;;;;;89.82;55.08;;;21.40;67.10;;;;;;4972504;28;89465;-80
2023/06/27 08:13:25;;;;;;;87.40;54.38;;;21.50;67.50;;;;;;4965720;28;89492;-81
2023/06/27 08:15:51;;;;;;;88.00;55.00;;;21.60;67.00;;;;;;4988691;28;89892;-80
2023/06/27 08:18:16;;;;;;;87.03;54.60;;;21.60;66.50;;;;;;4978216;28;94412;-80
2023/06/27 08:20:42;;;;;;;87.00;54.53;;;21.60;66.50;;;;;;4982136;28;90852;-81
2023/06/27 08:23:08;;;;;;;86.88;54.78;;;21.60;66.40;;;;;;4985309;28;89067;-80
2023/06/27 08:25:33;;;;;;;88.97;54.55;;;21.60;66.20;;;;;;4980921;28;94429;-81
2023/06/27 08:27:59;;;;;;;87.60;54.58;;;21.70;66.40;;;;;;4969378;28;92875;-82
2023/06/27 08:30:29;;;;;;;88.75;54.72;;;21.70;67.10;;;;;;4970058;28;92607;-81
2023/06/27 08:32:56;;;;;;;88.40;54.47;;;21.70;66.50;;;;;;4987126;28;91979;-80
2023/06/27 08:35:22;;;;;;;86.68;54.42;;;21.70;66.20;;;;;;4978268;28;92742;-80
2023/06/27 08:37:47;;;;;;;89.18;54.42;;;21.80;66.40;;;;;;4976708;28;92451;-81
2023/06/27 08:40:26;;;;;;;88.28;54.88;;;21.80;66.10;;;;;;4964085;28;89868;-80
2023/06/27 08:42:52;;;;;;;88.95;54.78;;;21.90;66.20;;;;;;4976732;28;90353;-80
2023/06/27 08:45:18;;;;;;;85.93;54.38;;;21.90;66.00;;;;;;4991530;28;89750;-81
2023/06/27 08:47:46;;;;;;;87.53;54.67;;;21.90;65.80;;;;;;4974361;28;92374;-80
2023/06/27 08:50:15;;;;;;;86.40;54.20;;;21.90;65.50;;;;;;4972057;28;89842;-81
2023/06/27 08:52:46;;;;;;;86.38;54.47;;;22.00;65.30;;;;;;4988733;28;89794;-81
2023/06/27 08:55:16;;;;;;;;;;;22.00;65.00;;;;;;4987298;28;91317;-81
2023/06/27 08:57:43;;;;;;;87.85;54.65;;;22.00;64.90;;;;;;4992458;28;90271;-81
2023/06/27 09:00:12;;;;;;;88.38;54.38;;;22.10;65.10;;;;;;4987651;28;89914;-81
2023/06/27 09:02:39;;;;;;;86.72;54.33;;;22.10;65.20;;;;;;4990602;28;90289;-82
2023/06/27 09:05:06;;;;;;;87.57;54.88;;;22.10;65.40;;;;;;4990126;28;91094;-81
2023/06/27 09:07:33;;;;;;;87.50;54.35;;;22.20;65.40;;;;;;4973071;28;92632;-81
2023/06/27 09:09:59;;;;;;;88.60;54.78;;;22.20;64.60;;;;;;4985308;28;89694;-83
2023/06/27 09:12:27;;;;;;;89.47;54.63;;;22.30;64.70;;;;;;4991634;28;90281;-81
2023/06/27 09:14:53;;;;;;;88.18;54.88;;;22.30;64.70;;;;;;4964053;28;92557;-81
2023/06/27 09:17:19;;;;;;;87.57;54.63;;;22.40;64.60;;;;;;4997652;28;89295;-81
2023/06/27 09:19:44;;;;;;;87.80;54.70;;;22.40;64.40;;;;;;4991527;28;90575;-81
2023/06/27 09:22:10;;;;;;;87.30;54.33;;;22.40;64.10;;;;;;4980487;28;89537;-81
2023/06/27 09:24:40;;;;;;;88.32;55.20;;;22.50;64.50;;;;;;4989558;28;89572;-83
2023/06/27 09:27:09;;;;;;;85.60;54.47;;;22.60;63.60;;;;;;4993975;28;90049;-81
2023/06/27 09:29:36;;;;;;;86.70;54.63;;;22.60;64.30;;;;;;4976173;28;90000;-83
2023/06/27 09:32:08;;;;;;;90.05;55.20;;;22.60;64.10;;;;;;4990282;28;90511;-81
2023/06/27 09:34:35;;;;;;;87.53;54.85;;;22.70;64.00;;;;;;4984710;28;91530;-81
2023/06/27 09:37:02;;;;;;;90.97;54.85;;;22.70;63.60;;;;;;4986240;28;89639;-81
2023/06/27 09:39:28;;;;;;;86.10;54.33;;;22.70;64.00;;;;;;4985406;28;90903;-81
2023/06/27 09:41:54;;;;;;;86.57;54.42;;;22.80;63.90;;;;;;4986950;28;90126;-82
2023/06/27 09:44:25;;;;;;;87.82;54.92;;;22.80;64.20;;;;;;4989341;28;92936;-82
2023/06/27 09:46:52;;;;;;;85.97;54.25;;;22.80;63.80;;;;;;4983165;28;90511;-82
2023/06/27 09:49:19;;;;;;;85.72;54.42;;;22.80;63.90;;;;;;4967792;28;90235;-82
2023/06/27 09:51:46;;;;;;;86.95;54.55;;;22.90;63.80;;;;;;4973805;28;89038;-81
2023/06/27 09:54:20;;;;;;;86.38;54.55;;;22.90;63.50;;;;;;4966242;28;93483;-82
2023/06/27 09:56:50;;;;;;;87.53;54.60;;;22.90;63.50;;;;;;4963053;28;92704;-81
2023/06/27 09:59:20;;;;;;;87.88;54.30;;;23.00;63.20;;;;;;4987968;28;89675;-82
2023/06/27 10:01:47;;;;;;;87.43;54.60;;;23.00;63.40;;;;;;4967301;28;89204;-82
2023/06/27 10:04:12;;;;;;;86.25;54.55;;;23.10;63.00;;;;;;4993977;28;89955;-82
2023/06/27 10:06:38;;;;;;;86.78;54.58;;;23.10;63.30;;;;;;4994202;28;89841;-83
2023/06/27 10:09:04;;;;;;;87.97;54.83;;;23.10;63.70;;;;;;4982173;28;90698;-81
2023/06/27 10:11:30;;;;;;;88.90;55.28;;;23.10;62.90;;;;;;4985942;28;89382;-81
2023/06/27 10:13:56;;;;;;;86.43;54.63;;;23.20;62.90;;;;;;4986431;28;89908;-81
2023/06/27 10:16:22;;;;;;;88.47;54.95;;;23.20;62.90;;;;;;4986535;28;90316;-81
2023/06/27 10:18:47;;;;;;;89.20;54.70;;;23.20;62.70;;;;;;4984220;28;89819;-81
2023/06/27 10:21:15;;;;;;;87.10;54.53;;;23.30;62.20;;;;;;4985194;28;89375;-82
2023/06/27 10:23:44;;;;;;;89.25;55.22;;;23.30;61.70;;;;;;4966450;28;94041;-82
2023/06/27 10:26:10;;;;;;;87.18;54.97;;;23.40;61.90;;;;;;4988914;28;91755;-82
2023/06/27 10:28:36;;;;;;;88.35;55.10;;;23.40;61.80;;;;;;4967426;28;89516;-82
2023/06/27 10:31:05;;;;;;;89.60;55.25;;;23.50;61.60;;;;;;4988926;28;89361;-82
2023/06/27 10:33:32;;;;;;;88.22;55.15;;;23.50;61.50;;;;;;4981304;28;90817;-82
2023/06/27 10:36:00;;;;;;;87.82;55.13;;;23.60;61.90;;;;;;4976907;28;92792;-82
2023/06/27 10:38:46;;;;;;;88.18;55.30;;;23.60;61.20;;;;;;4990358;28;89811;-81
2023/06/27 10:41:23;;;;;;;87.95;55.00;;;23.70;61.70;;;;;;4964038;28;90824;-82
2023/06/27 10:43:51;;;;;;;87.55;55.03;;;23.70;61.40;;;;;;4972382;28;93520;-82
2023/06/27 10:46:22;;;;;;;89.35;55.42;;;23.80;61.50;;;;;;4968407;28;92484;-83
2023/06/27 10:48:53;;;;;;;89.82;55.53;;;23.80;60.90;;;;;;4981536;28;89686;-83
2023/06/27 10:51:21;;;;;;;88.57;55.63;;;23.90;61.70;;;;;;4991261;28;89126;-83
2023/06/27 10:54:08;;;;;;;89.88;55.35;;;23.90;61.30;;;;;;4984818;28;90112;-83
2023/06/27 10:56:36;;;;;;;87.95;55.15;;;23.90;61.70;;;;;;4983851;28;92967;-83
2023/06/27 10:59:09;;;;;;;88.20;55.08;;;24.00;61.80;;;;;;4987247;28;90707;-83
2023/06/27 11:01:35;;;;;;;89.68;55.33;;;24.00;61.30;;;;;;4980034;28;90622;-83
2023/06/27 11:04:19;;;;;;;89.13;55.58;;;24.00;61.30;;;;;;4977582;28;90722;-83
2023/06/27 11:06:45;;;;;;;89.85;55.55;;;24.00;60.80;;;;;;4966268;28;91848;-83
2023/06/27 11:09:18;;;;;;;88.97;55.45;;;24.10;61.30;;;;;;4984167;28;90277;-82
2023/06/27 11:12:07;;;;;;;89.47;55.25;;;24.10;61.50;;;;;;4990138;28;91379;-83
2023/06/27 11:14:35;;;;;;;89.18;55.15;;;24.10;61.30;;;;;;4982066;28;90454;-83
2023/06/27 11:17:03;;;;;;;90.40;55.50;;;24.20;60.80;;;;;;4976424;28;89528;-84
2023/06/27 11:19:33;;;;;;;88.60;55.53;;;24.20;59.70;;;;;;4979674;28;89984;-83
2023/06/27 11:22:00;;;;;;;88.28;55.45;;;24.20;60.70;;;;;;4967484;28;93568;-83
2023/06/27 11:24:26;;;;;;;89.10;55.45;;;24.30;60.50;;;;;;4976351;28;91252;-83
2023/06/27 11:26:52;;;;;;;92.15;55.75;;;24.40;60.50;;;;;;4961283;28;95118;-83
2023/06/27 11:29:18;;;;;;;90.80;55.20;;;24.50;60.70;;;;;;4963373;28;89529;-83
2023/06/27 11:31:43;;;;;;;88.72;55.72;;;24.60;59.90;;;;;;4988465;28;90495;-83
2023/06/27 11:34:09;;;;;;;89.10;55.63;;;24.50;59.80;;;;;;4985066;28;91629;-83
2023/06/27 11:36:38;;;;;;;89.32;55.72;;;24.60;59.90;;;;;;4956409;28;93298;-83
2023/06/27 11:39:05;;;;;;;91.20;55.90;;;24.60;60.10;;;;;;4975256;28;89784;-83
2023/06/27 11:41:31;;;;;;;89.28;55.40;;;24.50;59.60;;;;;;4968628;28;88666;-83
2023/06/27 11:43:56;;;;;;;89.45;55.72;;;24.50;60.60;;;;;;4984123;28;89694;-83
2023/06/27 11:46:22;;;;;;;89.63;55.53;;;24.40;60.60;;;;;;4972047;28;92908;-83
2023/06/27 11:48:48;;;;;;;88.65;55.58;;;24.40;60.40;;;;;;4963847;28;91221;-84
2023/06/27 11:51:14;;;;;;;89.53;55.67;;;24.40;60.50;;;;;;4957571;28;90044;-83
2023/06/27 11:53:50;;;;;;;90.88;55.85;;;24.40;61.00;;;;;;4959108;28;92826;-83
2023/06/27 11:56:16;;;;;;;89.60;55.63;;;24.40;61.20;;;;;;4979294;28;91161;-83
2023/06/27 11:58:46;;;;;;;87.30;55.08;;;24.30;61.30;;;;;;4977518;28;89504;-84
2023/06/27 12:01:14;;;;;;;90.93;55.80;;;24.30;61.50;;;;;;4987779;28;90351;-81
2023/06/27 12:03:40;;;;;;;89.55;55.88;;;24.40;61.50;;;;;;4978840;28;90768;-83
2023/06/27 12:06:22;;;;;;;90.25;55.67;;;24.40;61.30;;;;;;4965907;28;93558;-82
2023/06/27 12:08:47;;;;;;;89.45;55.90;;;24.50;60.80;;;;;;4983492;28;90254;-82
2023/06/27 12:11:13;;;;;;;90.15;55.53;;;24.50;60.90;;;;;;4985589;28;89480;-82
2023/06/27 12:13:38;;;;;;;90.25;55.55;;;24.60;60.50;;;;;;4987445;28;90911;-81
2023/06/27 12:16:05;;;;;;;88.85;55.67;;;24.70;59.20;;;;;;4985221;28;90571;-82
2023/06/27 12:18:31;;;;;;;90.35;55.88;;;24.70;60.40;;;;;;4980930;28;92520;-82
2023/06/27 12:20:58;;;;;;;90.15;56.08;;;24.70;60.20;;;;;;4994392;28;89417;-82
2023/06/27 12:23:27;;;;;;;89.82;55.72;;;24.70;59.80;;;;;;4959994;28;93019;-82
2023/06/27 12:25:52;;;;;;;90.07;56.05;;;24.70;60.30;;;;;;4967524;28;92327;-82
2023/06/27 12:28:18;;;;;;;89.60;55.95;;;24.80;59.20;;;;;;4963898;28;91044;-84